createdAt,value
2019-02-05T00:01:48.944Z,997.90
2019-02-05T00:02:48.815Z,997.87
2019-02-05T00:04:42.505Z,997.96
2019-02-05T00:05:42.367Z,997.91
2019-02-05T00:07:35.277Z,997.93
2019-02-05T00:08:35.123Z,997.91
2019-02-05T00:10:28.247Z,997.98
2019-02-05T00:11:28.078Z,997.99
2019-02-05T00:13:20.965Z,998.01
2019-02-05T00:14:20.826Z,997.93
2019-02-05T00:16:13.715Z,997.82
2019-02-05T00:17:13.567Z,997.76
2019-02-05T00:19:06.632Z,997.73
2019-02-05T00:20:06.333Z,997.77
2019-02-05T00:21:59.303Z,997.70
2019-02-05T00:22:59.175Z,997.69
2019-02-05T00:24:52.256Z,997.73
2019-02-05T00:25:52.128Z,997.66
2019-02-05T00:27:45.011Z,997.73
2019-02-05T00:28:44.872Z,997.67
2019-02-05T00:30:37.783Z,997.67
2019-02-05T00:31:37.626Z,997.57
2019-02-05T00:33:30.614Z,997.69
2019-02-05T00:34:30.490Z,997.59
2019-02-05T00:36:23.364Z,997.61
2019-02-05T00:37:23.234Z,997.58
2019-02-05T00:39:16.122Z,997.48
2019-02-05T00:40:15.994Z,997.54
2019-02-05T00:42:09.166Z,997.56
2019-02-05T00:43:09.033Z,997.53
2019-02-05T00:45:01.920Z,997.50
2019-02-05T00:46:01.822Z,997.48
2019-02-05T00:47:54.660Z,997.51
2019-02-05T00:48:54.530Z,997.39
2019-02-05T00:50:47.429Z,997.37
2019-02-05T00:51:47.283Z,997.53
2019-02-05T00:53:40.267Z,997.42
2019-02-05T00:54:40.128Z,997.32
2019-02-05T00:56:33.012Z,997.31
2019-02-05T00:57:32.883Z,997.38
2019-02-05T00:59:25.788Z,996.96
2019-02-05T01:00:25.660Z,997.17
2019-02-05T01:02:18.514Z,997.16
2019-02-05T01:03:18.398Z,997.10
2019-02-05T01:05:11.271Z,997.25
2019-02-05T01:06:11.143Z,997.15
2019-02-05T01:08:04.028Z,997.18
2019-02-05T01:09:03.891Z,997.24
2019-02-05T01:10:56.763Z,997.32
2019-02-05T01:11:56.649Z,997.35
2019-02-05T01:13:49.529Z,997.58
2019-02-05T01:14:49.418Z,997.69
2019-02-05T01:16:42.295Z,997.63
2019-02-05T01:17:42.133Z,997.65
2019-02-05T01:19:35.013Z,997.60
2019-02-05T01:20:34.879Z,997.64
2019-02-05T01:22:27.797Z,997.54
2019-02-05T01:23:27.631Z,997.43
2019-02-05T01:25:20.531Z,997.45
2019-02-05T01:26:29.040Z,997.59
2019-02-05T01:28:13.291Z,997.73
2019-02-05T01:29:13.128Z,997.58
2019-02-05T01:31:06.030Z,997.63
2019-02-05T01:32:05.871Z,997.64
2019-02-05T01:33:58.757Z,997.71
2019-02-05T01:34:58.637Z,997.62
2019-02-05T01:36:51.523Z,997.60
2019-02-05T01:37:51.381Z,997.55
2019-02-05T01:39:44.268Z,997.57
2019-02-05T01:40:44.122Z,997.58
2019-02-05T01:42:37.034Z,997.74
2019-02-05T01:43:36.875Z,997.72
2019-02-05T01:45:29.782Z,997.69
2019-02-05T01:46:29.627Z,997.67
2019-02-05T01:48:22.524Z,997.67
2019-02-05T01:49:22.390Z,997.62
2019-02-05T01:51:15.266Z,997.55
2019-02-05T01:52:15.126Z,997.48
2019-02-05T01:54:08.008Z,997.66
2019-02-05T01:55:07.872Z,997.56
2019-02-05T01:57:00.785Z,997.66
2019-02-05T01:58:00.626Z,997.68
2019-02-05T01:59:53.519Z,997.68
2019-02-05T02:00:53.380Z,997.84
2019-02-05T02:02:46.277Z,997.65
2019-02-05T02:03:46.118Z,997.72
2019-02-05T02:05:38.997Z,997.65
2019-02-05T02:06:38.877Z,997.64
2019-02-05T02:08:31.764Z,997.67
2019-02-05T02:09:31.619Z,997.78
2019-02-05T02:11:24.510Z,997.83
2019-02-05T02:12:24.368Z,997.87
2019-02-05T02:14:17.255Z,997.81
2019-02-05T02:15:17.126Z,997.82
2019-02-05T02:17:10.010Z,997.83
2019-02-05T02:18:09.866Z,997.87
2019-02-05T02:20:03.275Z,997.85
2019-02-05T02:21:03.146Z,997.94
2019-02-05T02:22:56.025Z,997.85
2019-02-05T02:23:55.885Z,997.85
2019-02-05T02:25:51.761Z,997.81
2019-02-05T02:26:52.393Z,997.73
2019-02-05T02:28:44.701Z,997.67
2019-02-05T02:29:44.579Z,997.59
2019-02-05T02:31:37.450Z,997.70
2019-02-05T02:32:37.327Z,997.64
2019-02-05T02:34:30.203Z,997.64
2019-02-05T02:35:30.067Z,997.66
2019-02-05T02:37:22.961Z,997.63
2019-02-05T02:38:22.804Z,997.65
2019-02-05T02:40:24.753Z,997.66
2019-02-05T02:41:23.929Z,997.60
2019-02-05T02:43:15.788Z,997.69
2019-02-05T02:44:15.595Z,997.79
2019-02-05T02:46:08.469Z,997.62
2019-02-05T02:47:08.326Z,997.58
2019-02-05T02:49:01.432Z,997.74
2019-02-05T02:50:01.297Z,997.80
2019-02-05T02:51:54.177Z,997.76
2019-02-05T02:52:54.042Z,997.80
2019-02-05T02:54:46.916Z,997.87
2019-02-05T02:55:46.784Z,997.79
2019-02-05T02:57:39.664Z,997.87
2019-02-05T02:58:39.532Z,997.88
2019-02-05T03:00:32.941Z,997.88
2019-02-05T03:01:32.790Z,997.97
2019-02-05T03:03:26.189Z,997.93
2019-02-05T03:04:26.055Z,997.87
2019-02-05T03:06:19.470Z,997.88
2019-02-05T03:07:19.320Z,997.85
2019-02-05T03:09:12.192Z,997.83
2019-02-05T03:10:12.079Z,997.87
2019-02-05T03:12:04.968Z,997.88
2019-02-05T03:13:04.815Z,998.08
2019-02-05T03:14:57.711Z,997.78
2019-02-05T03:15:57.576Z,997.77
2019-02-05T03:17:50.519Z,997.77
2019-02-05T03:18:50.312Z,997.75
2019-02-05T03:20:43.195Z,997.68
2019-02-05T03:21:43.094Z,997.68
2019-02-05T03:23:36.461Z,997.68
2019-02-05T03:24:36.326Z,997.66
2019-02-05T03:26:29.203Z,997.66
2019-02-05T03:27:29.091Z,997.65
2019-02-05T03:29:22.482Z,997.68
2019-02-05T03:30:22.370Z,997.67
2019-02-05T03:32:15.334Z,997.76
2019-02-05T03:33:15.190Z,997.70
2019-02-05T03:35:08.089Z,997.79
2019-02-05T03:36:07.947Z,997.73
2019-02-05T03:38:01.345Z,997.72
2019-02-05T03:39:01.202Z,997.83
2019-02-05T03:40:54.086Z,997.93
2019-02-05T03:41:53.967Z,997.84
2019-02-05T03:43:46.835Z,997.80
2019-02-05T03:44:46.717Z,997.96
2019-02-05T03:46:39.583Z,997.86
2019-02-05T03:47:39.454Z,997.85
2019-02-05T03:49:32.330Z,997.82
2019-02-05T03:50:32.201Z,997.73
2019-02-05T03:52:25.100Z,997.82
2019-02-05T03:53:24.950Z,997.79
2019-02-05T03:55:17.831Z,997.89
2019-02-05T03:56:17.707Z,997.78
2019-02-05T03:58:10.595Z,997.79
2019-02-05T03:59:10.446Z,997.84
2019-02-05T04:01:03.332Z,997.87
2019-02-05T04:02:03.202Z,997.89
2019-02-05T04:03:56.095Z,997.95
2019-02-05T04:04:56.064Z,997.87
2019-02-05T04:06:48.840Z,997.89
2019-02-05T04:07:48.707Z,997.84
2019-02-05T04:09:41.607Z,997.90
2019-02-05T04:10:41.453Z,997.87
2019-02-05T04:12:34.333Z,997.83
2019-02-05T04:13:34.207Z,997.86
2019-02-05T04:15:27.083Z,997.87
2019-02-05T04:16:26.969Z,997.84
2019-02-05T04:18:19.829Z,997.82
2019-02-05T04:19:19.696Z,997.93
2019-02-05T04:21:12.591Z,997.87
2019-02-05T04:22:12.444Z,997.92
2019-02-05T04:24:05.347Z,997.91
2019-02-05T04:25:05.187Z,997.88
2019-02-05T04:26:58.076Z,997.89
2019-02-05T04:27:57.959Z,997.89
2019-02-05T04:29:50.853Z,998.08
2019-02-05T04:30:50.740Z,997.98
2019-02-05T04:32:43.587Z,997.99
2019-02-05T04:33:43.464Z,997.96
2019-02-05T04:35:36.312Z,998.04
2019-02-05T04:36:36.190Z,998.05
2019-02-05T04:38:29.086Z,998.11
2019-02-05T04:39:28.940Z,998.07
2019-02-05T04:41:21.831Z,998.07
2019-02-05T04:42:21.702Z,998.13
2019-02-05T04:44:14.582Z,998.07
2019-02-05T04:45:14.462Z,998.05
2019-02-05T04:47:08.144Z,998.03
2019-02-05T04:48:08.006Z,998.09
2019-02-05T04:50:00.778Z,998.06
2019-02-05T04:51:00.662Z,998.08
2019-02-05T04:52:53.545Z,998.08
2019-02-05T04:53:53.405Z,998.13
2019-02-05T04:55:46.184Z,998.12
2019-02-05T04:56:46.058Z,998.15
2019-02-05T04:58:38.902Z,998.15
2019-02-05T04:59:38.722Z,998.11
2019-02-05T05:01:31.686Z,998.19
2019-02-05T05:02:31.554Z,998.20
2019-02-05T05:04:24.351Z,998.16
2019-02-05T05:05:24.236Z,998.12
2019-02-05T05:07:17.078Z,998.15
2019-02-05T05:08:16.946Z,998.17
2019-02-05T05:10:10.711Z,998.16
2019-02-05T05:11:09.618Z,998.14
2019-02-05T05:13:02.382Z,998.11
2019-02-05T05:14:02.260Z,998.07
2019-02-05T05:15:55.019Z,998.09
2019-02-05T05:16:54.900Z,998.07
2019-02-05T05:18:47.684Z,998.00
2019-02-05T05:19:47.540Z,998.04
2019-02-05T05:21:40.444Z,997.98
2019-02-05T05:22:40.320Z,997.91
2019-02-05T05:24:33.071Z,997.96
2019-02-05T05:25:32.937Z,998.05
2019-02-05T05:27:25.711Z,997.83
2019-02-05T05:28:25.590Z,997.80
2019-02-05T05:30:18.361Z,997.96
2019-02-05T05:31:18.271Z,997.95
2019-02-05T05:33:11.339Z,997.95
2019-02-05T05:34:11.208Z,997.91
2019-02-05T05:36:03.971Z,997.94
2019-02-05T05:37:03.837Z,997.87
2019-02-05T05:38:56.620Z,997.90
2019-02-05T05:39:56.483Z,997.95
2019-02-05T05:41:49.269Z,997.92
2019-02-05T05:42:49.146Z,998.02
2019-02-05T05:44:41.955Z,998.01
2019-02-05T05:45:41.785Z,997.96
2019-02-05T05:47:35.165Z,997.96
2019-02-05T05:48:35.059Z,998.04
2019-02-05T05:50:28.131Z,998.05
2019-02-05T05:51:27.998Z,998.00
2019-02-05T05:53:20.988Z,997.99
2019-02-05T05:54:20.856Z,998.11
2019-02-05T05:56:13.635Z,998.10
2019-02-05T05:57:13.545Z,998.09
2019-02-05T05:59:06.270Z,998.08
2019-02-05T06:00:06.155Z,998.11
2019-02-05T06:01:59.018Z,998.13
2019-02-05T06:02:58.920Z,998.15
2019-02-05T06:04:51.682Z,998.17
2019-02-05T06:05:51.540Z,998.18
2019-02-05T06:07:44.322Z,998.24
2019-02-05T06:08:44.196Z,998.30
2019-02-05T06:10:37.065Z,998.40
2019-02-05T06:11:36.944Z,998.44
2019-02-05T06:13:29.716Z,998.48
2019-02-05T06:14:29.584Z,998.57
2019-02-05T06:16:22.381Z,998.41
2019-02-05T06:17:22.241Z,998.55
2019-02-05T06:19:15.129Z,998.50
2019-02-05T06:20:14.987Z,998.52
2019-02-05T06:22:07.766Z,998.55
2019-02-05T06:23:07.628Z,998.51
2019-02-05T06:25:00.403Z,998.53
2019-02-05T06:26:00.277Z,998.49
2019-02-05T06:27:53.065Z,998.48
2019-02-05T06:28:52.937Z,998.46
2019-02-05T06:30:45.717Z,998.50
2019-02-05T06:31:45.571Z,998.52
2019-02-05T06:33:38.347Z,998.55
2019-02-05T06:34:38.227Z,998.56
2019-02-05T06:36:31.106Z,998.54
2019-02-05T06:37:31.036Z,998.60
2019-02-05T06:39:23.760Z,998.75
2019-02-05T06:40:23.619Z,998.83
2019-02-05T06:42:16.385Z,998.66
2019-02-05T06:43:16.261Z,998.72
2019-02-05T06:45:09.155Z,998.83
2019-02-05T06:46:09.017Z,998.77
2019-02-05T06:48:01.813Z,998.97
2019-02-05T06:49:01.671Z,998.85
2019-02-05T06:50:56.807Z,998.92
2019-02-05T06:51:54.297Z,998.97
2019-02-05T06:53:47.085Z,998.92
2019-02-05T06:54:46.960Z,998.93
2019-02-05T06:56:42.315Z,999.03
2019-02-05T06:57:39.609Z,999.01
2019-02-05T06:59:32.381Z,999.06
2019-02-05T07:00:32.248Z,999.03
2019-02-05T07:02:25.028Z,999.01
2019-02-05T07:03:24.902Z,999.04
2019-02-05T07:05:17.795Z,999.02
2019-02-05T07:06:17.643Z,999.13
2019-02-05T07:08:10.535Z,999.13
2019-02-05T07:09:10.392Z,999.12
2019-02-05T07:11:03.179Z,999.18
2019-02-05T07:12:03.053Z,999.22
2019-02-05T07:13:58.138Z,999.23
2019-02-05T07:14:55.687Z,999.20
2019-02-05T07:16:48.495Z,999.29
2019-02-05T07:17:50.091Z,999.26
2019-02-05T07:19:41.110Z,999.35
2019-02-05T07:20:40.985Z,999.36
2019-02-05T07:22:33.755Z,999.38
2019-02-05T07:23:33.635Z,999.39
2019-02-05T07:25:27.025Z,999.44
2019-02-05T07:26:26.910Z,999.43
2019-02-05T07:28:19.667Z,999.47
2019-02-05T07:29:19.545Z,999.50
2019-02-05T07:31:12.332Z,999.47
2019-02-05T07:32:12.197Z,999.49
2019-02-05T07:34:05.055Z,999.53
2019-02-05T07:35:04.969Z,999.56
2019-02-05T07:36:57.714Z,999.65
2019-02-05T07:37:57.588Z,999.68
2019-02-05T07:39:50.374Z,999.70
2019-02-05T07:40:50.238Z,999.67
2019-02-05T07:42:43.120Z,999.62
2019-02-05T07:43:42.982Z,999.64
2019-02-05T07:45:35.941Z,999.65
2019-02-05T07:46:35.724Z,999.68
2019-02-05T07:48:30.446Z,999.71
2019-02-05T07:49:28.388Z,999.74
2019-02-05T07:51:21.264Z,999.84
2019-02-05T07:52:21.128Z,999.81
2019-02-05T07:54:14.004Z,999.89
2019-02-05T07:55:13.910Z,999.81
2019-02-05T07:57:06.663Z,999.80
2019-02-05T07:58:06.545Z,999.85
2019-02-05T07:59:59.404Z,999.83
2019-02-05T08:00:59.274Z,999.85
2019-02-05T08:02:52.050Z,999.78
2019-02-05T08:03:51.922Z,999.82
2019-02-05T08:05:44.802Z,999.90
2019-02-05T08:06:44.670Z,999.87
2019-02-05T08:08:37.576Z,999.90
2019-02-05T08:09:37.413Z,999.90
2019-02-05T08:11:30.300Z,999.88
2019-02-05T08:12:30.163Z,999.91
2019-02-05T08:14:22.950Z,999.88
2019-02-05T08:15:22.853Z,999.87
2019-02-05T08:17:15.694Z,999.81
2019-02-05T08:18:15.573Z,999.84
2019-02-05T08:20:08.361Z,999.84
2019-02-05T08:21:08.241Z,999.86
2019-02-05T08:23:01.111Z,999.88
2019-02-05T08:24:00.958Z,999.89
2019-02-05T08:25:53.845Z,999.83
2019-02-05T08:26:53.716Z,999.78
2019-02-05T08:28:46.585Z,999.85
2019-02-05T08:29:46.458Z,999.82
2019-02-05T08:31:39.448Z,999.85
2019-02-05T08:32:39.310Z,999.87
2019-02-05T08:34:32.193Z,999.89
2019-02-05T08:35:32.071Z,999.96
2019-02-05T08:37:25.365Z,1000.00
2019-02-05T08:38:25.223Z,999.99
2019-02-05T08:40:18.119Z,999.99
2019-02-05T08:41:17.975Z,1000.01
2019-02-05T08:43:10.855Z,999.95
2019-02-05T08:44:10.717Z,999.98
2019-02-05T08:46:03.601Z,1000.02
2019-02-05T08:47:03.467Z,1000.05
2019-02-05T08:48:56.349Z,1000.07
2019-02-05T08:49:56.223Z,1000.14
2019-02-05T08:51:49.101Z,1000.20
2019-02-05T08:52:48.965Z,1000.19
2019-02-05T08:54:41.886Z,1000.22
2019-02-05T08:55:41.713Z,1000.27
2019-02-05T08:57:34.597Z,1000.25
2019-02-05T08:58:34.475Z,1000.26
2019-02-05T09:00:27.347Z,1000.26
2019-02-05T09:01:27.224Z,1000.30
2019-02-05T09:03:20.093Z,1000.23
2019-02-05T09:04:19.967Z,1000.22
2019-02-05T09:06:12.875Z,1000.21
2019-02-05T09:07:12.732Z,1000.15
2019-02-05T09:09:05.606Z,1000.27
2019-02-05T09:10:05.466Z,1000.22
2019-02-05T09:11:58.346Z,1000.24
2019-02-05T09:12:58.214Z,1000.24
2019-02-05T09:14:51.099Z,1000.23
2019-02-05T09:15:50.958Z,1000.25
2019-02-05T09:17:43.844Z,1000.23
2019-02-05T09:18:43.735Z,1000.25
2019-02-05T09:20:36.602Z,1000.33
2019-02-05T09:21:36.460Z,1000.25
2019-02-05T09:23:29.342Z,1000.34
2019-02-05T09:24:29.218Z,1000.38
2019-02-05T09:26:22.093Z,1000.37
2019-02-05T09:27:22.010Z,1000.39
2019-02-05T09:29:14.854Z,1000.40
2019-02-05T09:30:14.716Z,1000.38
2019-02-05T09:32:07.620Z,1000.47
2019-02-05T09:33:07.460Z,1000.42
2019-02-05T09:35:00.385Z,1000.54
2019-02-05T09:36:00.211Z,1000.49
2019-02-05T09:38:03.631Z,1000.53
2019-02-05T09:39:02.500Z,1000.55
2019-02-05T09:40:54.462Z,1000.59
2019-02-05T09:41:54.318Z,1000.59
2019-02-05T09:43:47.289Z,1000.58
2019-02-05T09:44:47.075Z,1000.58
2019-02-05T09:46:39.945Z,1000.62
2019-02-05T09:47:39.812Z,1000.72
2019-02-05T09:49:32.713Z,1000.71
2019-02-05T09:50:43.714Z,1000.66
2019-02-05T09:52:25.444Z,1000.65
2019-02-05T09:53:25.318Z,1000.68
2019-02-05T09:55:18.230Z,1000.66
2019-02-05T09:56:18.069Z,1000.72
2019-02-05T09:58:10.939Z,1000.79
2019-02-05T09:59:10.819Z,1000.71
2019-02-05T10:01:03.736Z,1000.83
2019-02-05T10:02:03.581Z,1000.80
2019-02-05T10:03:56.443Z,1000.80
2019-02-05T10:04:56.324Z,1000.80
2019-02-05T10:06:50.193Z,1000.81
2019-02-05T10:07:49.611Z,1000.81
2019-02-05T10:09:42.451Z,1000.90
2019-02-05T10:10:42.364Z,1000.93
2019-02-05T10:12:35.205Z,1000.84
2019-02-05T10:13:35.084Z,1000.86
2019-02-05T10:15:27.953Z,1000.83
2019-02-05T10:16:27.825Z,1000.83
2019-02-05T10:18:20.706Z,1000.84
2019-02-05T10:19:20.590Z,1000.82
2019-02-05T10:21:13.456Z,1000.82
2019-02-05T10:22:13.313Z,1000.80
2019-02-05T10:24:06.210Z,1000.81
2019-02-05T10:25:06.067Z,1000.86
2019-02-05T10:26:58.947Z,1000.84
2019-02-05T10:27:58.837Z,1000.86
2019-02-05T10:29:59.293Z,1000.89
2019-02-05T10:30:51.602Z,1000.95
2019-02-05T10:32:44.450Z,1000.93
2019-02-05T10:33:54.706Z,1000.90
2019-02-05T10:35:37.210Z,1000.92
2019-02-05T10:36:37.072Z,1000.86
2019-02-05T10:38:29.965Z,1000.87
2019-02-05T10:39:29.818Z,1000.98
2019-02-05T10:41:22.741Z,1000.86
2019-02-05T10:42:22.571Z,1000.87
2019-02-05T10:44:15.447Z,1000.81
2019-02-05T10:45:15.321Z,1000.81
2019-02-05T10:47:08.200Z,1000.83
2019-02-05T10:48:08.069Z,1000.73
2019-02-05T10:50:00.970Z,1000.75
2019-02-05T10:51:00.814Z,1000.75
2019-02-05T10:52:53.719Z,1000.77
2019-02-05T10:53:53.569Z,1000.82
2019-02-05T10:55:46.448Z,1000.72
2019-02-05T10:56:46.320Z,1000.71
2019-02-05T10:58:39.196Z,1000.71
2019-02-05T10:59:39.068Z,1000.70
2019-02-05T11:01:31.969Z,1000.68
2019-02-05T11:02:31.824Z,1000.67
2019-02-05T11:04:24.712Z,1000.69
2019-02-05T11:05:24.569Z,1000.73
2019-02-05T11:07:18.058Z,1000.66
2019-02-05T11:08:17.954Z,1000.68
2019-02-05T11:10:10.810Z,1000.61
2019-02-05T11:11:10.695Z,1000.65
2019-02-05T11:13:03.597Z,1000.60
2019-02-05T11:14:03.422Z,1000.62
2019-02-05T11:15:56.324Z,1000.61
2019-02-05T11:16:56.273Z,1000.57
2019-02-05T11:18:49.081Z,1000.53
2019-02-05T11:19:48.932Z,1000.56
2019-02-05T11:21:41.811Z,1000.58
2019-02-05T11:22:41.681Z,1000.55
2019-02-05T11:24:34.569Z,1000.56
2019-02-05T11:25:34.431Z,1000.51
2019-02-05T11:27:27.305Z,1000.61
2019-02-05T11:28:27.187Z,1000.54
2019-02-05T11:30:20.745Z,1000.56
2019-02-05T11:31:19.935Z,1000.62
2019-02-05T11:33:12.827Z,1000.61
2019-02-05T11:34:12.689Z,1000.58
2019-02-05T11:36:06.089Z,1000.56
2019-02-05T11:37:05.943Z,1000.53
2019-02-05T11:38:58.824Z,1000.53
2019-02-05T11:39:58.687Z,1000.49
2019-02-05T11:41:51.587Z,1000.52
2019-02-05T11:42:51.445Z,1000.57
2019-02-05T11:44:44.331Z,1000.50
2019-02-05T11:45:44.198Z,1000.53
2019-02-05T11:47:37.093Z,1000.48
2019-02-05T11:48:36.943Z,1000.50
2019-02-05T11:50:30.666Z,1000.45
2019-02-05T11:51:30.511Z,1000.48
2019-02-05T11:53:23.409Z,1000.45
2019-02-05T11:54:23.261Z,1000.51
2019-02-05T11:56:16.140Z,1000.44
2019-02-05T11:57:16.015Z,1000.47
2019-02-05T11:59:08.898Z,1000.44
2019-02-05T12:00:08.766Z,1000.41
2019-02-05T12:02:01.638Z,1000.45
2019-02-05T12:03:01.538Z,1000.46
2019-02-05T12:04:54.388Z,1000.42
2019-02-05T12:05:54.271Z,1000.46
2019-02-05T12:07:47.146Z,1000.46
2019-02-05T12:08:47.004Z,1000.37
2019-02-05T12:10:39.888Z,1000.38
2019-02-05T12:11:39.767Z,1000.37
2019-02-05T12:13:32.658Z,1000.46
2019-02-05T12:14:32.522Z,1000.31
2019-02-05T12:16:25.390Z,1000.33
2019-02-05T12:17:25.252Z,1000.34
2019-02-05T12:19:18.151Z,1000.35
2019-02-05T12:20:18.005Z,1000.32
2019-02-05T12:22:10.895Z,1000.36
2019-02-05T12:23:10.767Z,1000.32
2019-02-05T12:25:03.631Z,1000.36
2019-02-05T12:26:03.512Z,1000.31
2019-02-05T12:27:56.413Z,1000.36
2019-02-05T12:28:56.254Z,1000.42
2019-02-05T12:30:49.139Z,1000.38
2019-02-05T12:31:49.006Z,1000.37
2019-02-05T12:33:41.901Z,1000.40
2019-02-05T12:34:41.753Z,1000.51
2019-02-05T12:36:34.627Z,1000.42
2019-02-05T12:37:34.509Z,1000.41
2019-02-05T12:39:27.377Z,1000.41
2019-02-05T12:40:27.267Z,1000.42
2019-02-05T12:42:20.181Z,1000.47
2019-02-05T12:43:20.019Z,1000.41
2019-02-05T12:45:13.394Z,1000.35
2019-02-05T12:46:13.279Z,1000.34
2019-02-05T12:48:06.137Z,1000.33
2019-02-05T12:49:06.024Z,1000.33
2019-02-05T12:50:58.885Z,1000.23
2019-02-05T12:51:58.769Z,1000.30
2019-02-05T12:53:51.641Z,1000.24
2019-02-05T12:54:51.511Z,1000.17
2019-02-05T12:56:44.394Z,1000.26
2019-02-05T12:57:44.275Z,1000.28
2019-02-05T12:59:37.163Z,1000.28
2019-02-05T13:00:37.032Z,1000.28
2019-02-05T13:02:29.893Z,1000.26
2019-02-05T13:03:29.759Z,1000.29
2019-02-05T13:05:22.638Z,1000.34
2019-02-05T13:06:22.521Z,1000.34
2019-02-05T13:08:15.389Z,1000.38
2019-02-05T13:09:15.259Z,1000.37
2019-02-05T13:11:08.649Z,1000.47
2019-02-05T13:12:08.533Z,1000.41
2019-02-05T13:14:01.518Z,1000.48
2019-02-05T13:15:01.368Z,1000.51
2019-02-05T13:16:54.246Z,1000.48
2019-02-05T13:17:54.126Z,1000.57
2019-02-05T13:19:47.539Z,1000.53
2019-02-05T13:20:47.407Z,1000.48
2019-02-05T13:22:40.892Z,1000.44
2019-02-05T13:23:40.775Z,1000.49
2019-02-05T13:25:33.647Z,1000.51
2019-02-05T13:26:33.496Z,1000.42
2019-02-05T13:28:26.378Z,1000.47
2019-02-05T13:29:28.836Z,1000.46
2019-02-05T13:31:19.137Z,1000.45
2019-02-05T13:32:19.011Z,1000.44
2019-02-05T13:34:11.882Z,1000.38
2019-02-05T13:35:11.752Z,1000.39
2019-02-05T13:37:04.628Z,1000.38
2019-02-05T13:38:04.518Z,1000.41
2019-02-05T13:39:57.449Z,1000.52
2019-02-05T13:40:57.261Z,1000.50
2019-02-05T13:42:50.126Z,1000.52
2019-02-05T13:43:50.016Z,1000.58
2019-02-05T13:45:42.877Z,1000.55
2019-02-05T13:46:42.755Z,1000.55
2019-02-05T13:48:35.635Z,1000.55
2019-02-05T13:49:35.500Z,1000.59
2019-02-05T13:51:28.372Z,1000.56
2019-02-05T13:52:28.250Z,1000.61
2019-02-05T13:54:21.134Z,1000.59
2019-02-05T13:55:21.032Z,1000.60
2019-02-05T13:57:13.878Z,1000.68
2019-02-05T13:58:13.752Z,1000.74
2019-02-05T14:00:06.639Z,1000.77
2019-02-05T14:01:06.511Z,1000.76
2019-02-05T14:02:59.388Z,1000.78
2019-02-05T14:03:59.265Z,1000.81
2019-02-05T14:05:52.119Z,1000.88
2019-02-05T14:06:52.007Z,1000.84
2019-02-05T14:08:44.867Z,1000.88
2019-02-05T14:09:44.791Z,1000.88
2019-02-05T14:11:37.629Z,1000.90
2019-02-05T14:12:37.503Z,1000.92
2019-02-05T14:14:30.395Z,1000.91
2019-02-05T14:15:30.235Z,1000.91
2019-02-05T14:17:23.133Z,1000.91
2019-02-05T14:18:23.256Z,1001.03
2019-02-05T14:20:15.895Z,1001.01
2019-02-05T14:21:15.755Z,1001.05
2019-02-05T14:23:08.616Z,1000.99
2019-02-05T14:24:08.499Z,1001.04
2019-02-05T14:26:01.365Z,1001.09
2019-02-05T14:27:01.239Z,1001.08
2019-02-05T14:28:54.643Z,1001.10
2019-02-05T14:29:54.513Z,1001.14
2019-02-05T14:31:47.410Z,1001.07
2019-02-05T14:32:47.277Z,1001.10
2019-02-05T14:34:40.139Z,1001.15
2019-02-05T14:35:40.102Z,1001.13
2019-02-05T14:37:32.874Z,1001.16
2019-02-05T14:38:32.761Z,1001.22
2019-02-05T14:40:25.627Z,1001.18
2019-02-05T14:41:25.499Z,1001.17
2019-02-05T14:43:18.371Z,1001.18
2019-02-05T14:44:18.284Z,1001.27
2019-02-05T14:46:13.113Z,1001.23
2019-02-05T14:47:11.009Z,1001.21
2019-02-05T14:49:03.904Z,1001.27
2019-02-05T14:50:03.749Z,1001.24
2019-02-05T14:51:57.898Z,1001.23
2019-02-05T14:52:56.524Z,1001.30
2019-02-05T14:54:49.372Z,1001.24
2019-02-05T14:55:49.255Z,1001.23
2019-02-05T14:57:42.128Z,1001.31
2019-02-05T14:58:42.004Z,1001.23
2019-02-05T15:00:34.882Z,1001.25
2019-02-05T15:01:42.646Z,1001.23
2019-02-05T15:03:27.618Z,1001.16
2019-02-05T15:04:27.499Z,1001.16
2019-02-05T15:06:20.389Z,1001.12
2019-02-05T15:07:20.468Z,1001.13
2019-02-05T15:09:13.116Z,1001.15
2019-02-05T15:10:13.016Z,1001.18
2019-02-05T15:12:05.874Z,1001.19
2019-02-05T15:13:05.761Z,1001.17
2019-02-05T15:14:58.628Z,1001.14
2019-02-05T15:15:58.501Z,1001.16
2019-02-05T15:17:51.368Z,1001.10
2019-02-05T15:18:51.240Z,1001.08
2019-02-05T15:20:44.126Z,1001.09
2019-02-05T15:21:43.992Z,1001.09
2019-02-05T15:23:36.878Z,1001.14
2019-02-05T15:24:38.065Z,1001.14
2019-02-05T15:26:29.634Z,1001.18
2019-02-05T15:27:29.492Z,1001.18
2019-02-05T15:29:22.396Z,1001.18
2019-02-05T15:30:22.246Z,1001.22
2019-02-05T15:32:15.128Z,1001.22
2019-02-05T15:33:14.990Z,1001.21
2019-02-05T15:35:07.900Z,1001.25
2019-02-05T15:36:07.741Z,1001.21
2019-02-05T15:38:00.632Z,1001.25
2019-02-05T15:39:00.492Z,1001.21
2019-02-05T15:40:53.364Z,1001.29
2019-02-05T15:41:53.239Z,1001.25
2019-02-05T15:43:46.116Z,1001.33
2019-02-05T15:44:45.989Z,1001.33
2019-02-05T15:46:38.867Z,1001.29
2019-02-05T15:47:38.744Z,1001.30
2019-02-05T15:49:31.624Z,1001.32
2019-02-05T15:50:31.489Z,1001.32
2019-02-05T15:52:24.372Z,1001.32
2019-02-05T15:53:24.236Z,1001.27
2019-02-05T15:55:17.139Z,1001.29
2019-02-05T15:56:17.008Z,1001.35
2019-02-05T15:58:09.866Z,1001.33
2019-02-05T15:59:09.780Z,1001.35
2019-02-05T16:01:02.623Z,1001.30
2019-02-05T16:02:06.280Z,1001.33
2019-02-05T16:03:55.377Z,1001.35
2019-02-05T16:04:55.253Z,1001.34
2019-02-05T16:06:48.627Z,1001.33
2019-02-05T16:07:48.497Z,1001.34
2019-02-05T16:09:41.391Z,1001.40
2019-02-05T16:10:41.245Z,1001.41
2019-02-05T16:12:34.139Z,1001.43
2019-02-05T16:13:34.007Z,1001.39
2019-02-05T16:15:26.882Z,1001.42
2019-02-05T16:16:26.793Z,1001.41
2019-02-05T16:18:19.636Z,1001.41
2019-02-05T16:19:19.504Z,1001.40
2019-02-05T16:21:12.392Z,1001.40
2019-02-05T16:22:12.252Z,1001.43
2019-02-05T16:24:05.140Z,1001.43
2019-02-05T16:25:05.005Z,1001.44
2019-02-05T16:26:57.896Z,1001.43
2019-02-05T16:27:57.763Z,1001.47
2019-02-05T16:29:50.648Z,1001.49
2019-02-05T16:30:50.512Z,1001.47
2019-02-05T16:32:43.389Z,1001.51
2019-02-05T16:33:43.274Z,1001.51
2019-02-05T16:35:36.154Z,1001.52
2019-02-05T16:36:36.034Z,1001.50
2019-02-05T16:38:28.884Z,1001.51
2019-02-05T16:39:28.760Z,1001.49
2019-02-05T16:41:21.637Z,1001.49
2019-02-05T16:42:21.501Z,1001.49
2019-02-05T16:44:14.387Z,1001.46
2019-02-05T16:45:14.244Z,1001.50
2019-02-05T16:47:07.661Z,1001.51
2019-02-05T16:48:07.506Z,1001.51
2019-02-05T16:50:00.410Z,1001.52
2019-02-05T16:51:00.254Z,1001.50
2019-02-05T16:52:53.136Z,1001.53
2019-02-05T16:53:53.004Z,1001.54
2019-02-05T16:55:45.919Z,1001.54
2019-02-05T16:56:45.752Z,1001.60
2019-02-05T16:58:38.737Z,1001.60
2019-02-05T16:59:38.608Z,1001.56
2019-02-05T17:01:31.500Z,1001.60
2019-02-05T17:02:31.353Z,1001.62
2019-02-05T17:04:24.262Z,1001.62
2019-02-05T17:05:24.102Z,1001.62
2019-02-05T17:07:16.978Z,1001.60
2019-02-05T17:08:16.848Z,1001.60
2019-02-05T17:10:09.743Z,1001.64
2019-02-05T17:11:09.609Z,1001.68
2019-02-05T17:13:02.476Z,1001.68
2019-02-05T17:14:02.370Z,1001.71
2019-02-05T17:15:55.251Z,1001.67
2019-02-05T17:16:55.095Z,1001.71
2019-02-05T17:18:47.997Z,1001.74
2019-02-05T17:19:47.887Z,1001.72
2019-02-05T17:21:40.743Z,1001.73
2019-02-05T17:22:40.595Z,1001.76
2019-02-05T17:24:33.483Z,1001.79
2019-02-05T17:25:35.889Z,1001.75
2019-02-05T17:27:26.250Z,1001.75
2019-02-05T17:28:26.105Z,1001.79
2019-02-05T17:30:18.975Z,1001.77
2019-02-05T17:31:18.855Z,1001.70
2019-02-05T17:33:11.733Z,1001.73
2019-02-05T17:34:11.613Z,1001.71
2019-02-05T17:36:05.016Z,1001.74
2019-02-05T17:37:04.859Z,1001.77
2019-02-05T17:38:57.749Z,1001.80
2019-02-05T17:39:57.623Z,1001.73
2019-02-05T17:41:51.016Z,1001.79